Terminal Aerodrome Forecast
Issued by NWS Wilmington, NC

Home | Current Version | Previous Version | Text Only | Print | Product List | Glossary On
Versions: 1 2 3 4 5 6 7 8 9 10 11 12 13 14 15 16 17 18 19 20 21 22 23 24
374
FTUS42 KILM 161251 AAA
TAFMYR
TAF AMD
KMYR 161251Z 1613/1712 04007KT 1/2SM FG VV002
      TEMPO 1613/1615 2SM BR BKN004
     FM161500 07006KT 6SM BR SCT007 OVC016
     FM162000 10007KT P6SM SCT007 OVC025
     FM170000 05005KT 6SM BR OVC015
     FM170700 03002KT 2SM BR OVC006=

USA.gov is the U.S. government's official web portal to all federal, state and local government web resources and services.